CYXE

Saskatoon John G. Diefenbaker International Airport

Airport
ICAO code
CYXE
Summary
ICAO Region
NAM
ICAO Territory
Location

Saskatoon, Saskatchewan,

Coordinates
52° 10' 15" N , 106° 41' 59" W
KCC
Airport CFIT
Altimeter Temperature Error Correction
Airport GND
Aircraft Ground De/Anti Icing
Metar
Observation
CYXE 280100Z 03014KT 15SM OVC080 M03/M05 A2927 RMK AC8 SLP941
Station
Saskatoon, Sask.
Date/Time
2022-11-28 01:00:00
Wind direction
30°
Wind speed
14 kts
Lowest cloud amount
overcast
Temperature
-3°C
Dew point
-5°C
Humidity
86%
Weather condition
n/a

Description

International airport serving Saskatoon, Saskatchewan.

Climatology

Humid Continental climate (Köppen climate classification Dfb) - Variable weather patterns and a large seasonal temperature variance. Summers are often warm and humid with frequent thunderstorms and winters can be very cold with frequent snowfall and persistent snow cover.

Runways

Designator Length Width Surface Rops
15/33 1890 46 ASP Yes/Yes
9/27 2530 61 ASP Yes/Yes

Airport map

Aerial View

SKYbrary Partners:

Safety knowledge contributed by: